Time;durP1;ratioP1;P1;durP2;ratioP2;P2;SDS_P1;SDS_P2;PMS_P1;PMS_P2;Temp;Humidity;BMP_temperature;BMP_pressure;BME280_temperature;BME280_humidity;BME280_pressure;Samples;Min_cycle;Max_cycle;Signal;HPM_P1;HPM_P2
2021/01/19 00:01:20;;;;;;;5.18;4.30;;;3.70;81.30;;;2.51;66.39;95149.88;5021022;28;20299;-84
2021/01/19 00:03:48;;;;;;;5.97;4.22;;;3.60;81.30;;;2.46;66.05;95144.28;5021889;28;20196;-84
2021/01/19 00:06:16;;;;;;;5.85;4.28;;;3.60;81.20;;;2.49;66.47;95154.34;5054483;28;20306;-84
2021/01/19 00:08:42;;;;;;;4.72;3.45;;;3.50;81.20;;;2.50;66.17;95148.22;5037994;28;20200;-84
2021/01/19 00:11:09;;;;;;;4.25;3.60;;;3.50;81.10;;;2.50;66.14;95145.63;5037230;28;20310;-84
2021/01/19 00:13:36;;;;;;;4.43;3.60;;;3.50;81.10;;;2.48;66.09;95147.53;5038302;28;20207;-84
2021/01/19 00:16:04;;;;;;;3.97;3.45;;;3.50;81.10;;;2.46;66.09;95132.16;5037269;28;20315;-82
2021/01/19 00:18:31;;;;;;;4.72;3.58;;;3.50;81.10;;;2.49;66.14;95141.41;5053986;28;20208;-84
2021/01/19 00:20:58;;;;;;;3.90;2.92;;;3.50;81.00;;;2.43;66.04;95145.38;5053430;28;20757;-83
2021/01/19 00:23:26;;;;;;;5.80;3.72;;;3.50;81.00;;;2.46;66.18;95144.28;5054832;28;20298;-83
2021/01/19 00:25:53;;;;;;;3.72;2.90;;;3.50;80.90;;;2.40;65.75;95135.28;5053969;28;20211;-83
2021/01/19 00:28:20;;;;;;;4.57;3.20;;;3.50;80.90;;;2.44;66.16;95141.84;5037878;28;20196;-82
2021/01/19 00:30:48;;;;;;;3.83;3.30;;;3.50;80.90;;;2.42;65.83;95143.72;5054207;28;20223;-84
2021/01/19 00:33:15;;;;;;;3.95;3.33;;;3.50;80.80;;;2.40;65.80;95135.28;5021748;28;20294;-84
2021/01/19 00:35:42;;;;;;;3.55;2.95;;;3.40;80.80;;;2.38;66.03;95137.19;5054527;28;20227;-84
2021/01/19 00:38:10;;;;;;;3.90;3.20;;;3.50;80.90;;;2.39;65.59;95136.22;5036215;28;20269;-84
2021/01/19 00:40:36;;;;;;;2.55;2.28;;;3.40;80.80;;;2.39;66.10;95137.06;5037308;28;20277;-83
2021/01/19 00:43:04;;;;;;;3.22;2.60;;;3.40;80.80;;;2.33;65.44;95131.59;5038195;28;20715;-84
2021/01/19 00:45:31;;;;;;;3.08;2.50;;;3.40;80.80;;;2.37;65.98;95144.13;5036467;28;20264;-83
2021/01/19 00:47:58;;;;;;;3.35;2.67;;;3.40;80.80;;;2.28;66.10;95133.78;5036951;28;20204;-83
2021/01/19 00:50:25;;;;;;;3.80;2.60;;;3.40;80.80;;;2.31;66.01;95142.09;5037100;28;20211;-84
2021/01/19 00:52:53;;;;;;;3.22;2.67;;;3.40;80.90;;;2.29;66.20;95133.63;5036890;28;20283;-83
2021/01/19 00:55:20;;;;;;;2.40;2.20;;;3.40;80.90;;;2.31;65.92;95141.28;5036280;28;20227;-83
2021/01/19 00:57:51;;;;;;;2.70;2.47;;;3.30;80.80;;;2.29;66.03;95141.41;5037832;28;20231;-84
2021/01/19 01:00:23;;;;;;;2.88;2.30;;;3.30;80.80;;;2.25;65.95;95134.88;5038361;28;20223;-84
2021/01/19 01:02:54;;;;;;;2.85;2.42;;;3.40;80.90;;;2.27;66.09;95147.66;5037263;28;20736;-83
2021/01/19 01:05:21;;;;;;;3.05;2.40;;;3.30;80.70;;;2.22;65.90;95141.13;5035890;28;20216;-84
2021/01/19 01:07:48;;;;;;;2.40;2.20;;;3.30;80.70;;;2.20;66.24;95143.03;5054485;28;20200;-83
2021/01/19 01:10:16;;;;;;;2.80;2.10;;;3.30;80.80;;;2.21;66.16;95149.00;5036564;28;20224;-83
2021/01/19 01:12:45;;;;;;;2.13;1.90;;;3.30;80.70;;;2.19;65.79;95141.38;5037720;28;20233;-83
2021/01/19 01:15:19;;;;;;;3.25;1.95;;;3.40;80.80;;;2.15;66.10;95142.63;5037058;28;20224;-84
2021/01/19 01:17:47;;;;;;;3.03;2.17;;;3.30;80.70;;;2.20;65.72;95150.78;5036842;28;20286;-84
2021/01/19 01:20:15;;;;;;;3.15;2.00;;;3.20;80.70;;;2.20;66.14;95140.44;5052766;28;20251;-83
2021/01/19 01:22:43;;;;;;;2.50;2.15;;;3.20;80.70;;;2.21;65.89;95144.66;5036782;28;20200;-84
2021/01/19 01:25:15;;;;;;;2.47;2.00;;;3.20;80.70;;;2.21;65.78;95146.41;5048118;28;20763;-84
2021/01/19 01:27:45;;;;;;;2.22;2.03;;;3.30;80.90;;;2.18;66.18;95137.16;5036756;28;20283;-83
2021/01/19 01:30:17;;;;;;;1.88;1.75;;;3.30;80.90;;;2.22;66.10;95135.13;5036785;28;20219;-83
2021/01/19 01:32:50;;;;;;;2.38;2.15;;;3.30;81.00;;;2.23;66.56;95145.38;5052974;28;20195;-83
2021/01/19 01:35:22;;;;;;;2.45;2.10;;;3.30;81.00;;;2.29;66.20;95138.00;5053472;28;20248;-83
2021/01/19 01:37:53;;;;;;;2.10;1.90;;;3.30;81.00;;;2.31;66.21;95142.09;5052497;28;20253;-84
2021/01/19 01:40:26;;;;;;;4.18;2.30;;;3.30;81.00;;;2.25;65.77;95129.69;5036733;28;20669;-83
2021/01/19 01:43:00;;;;;;;2.60;2.40;;;3.30;81.00;;;2.28;66.37;95121.63;5036069;28;20235;-83
2021/01/19 01:45:28;;;;;;;2.40;2.20;;;3.30;81.10;;;2.28;66.04;95119.06;5036054;28;20211;-83
2021/01/19 01:47:57;;;;;;;3.70;2.38;;;3.30;81.00;;;2.31;66.42;95120.59;5055434;28;20196;-84
2021/01/19 01:50:25;;;;;;;2.55;2.35;;;3.30;81.90;;;2.28;66.38;95111.28;5048983;28;20579;-83
2021/01/19 01:52:52;;;;;;;3.50;2.65;;;3.30;81.10;;;2.31;66.34;95118.78;5034353;28;20287;-84
2021/01/19 01:55:21;;;;;;;2.95;2.65;;;3.30;81.10;;;2.32;66.38;95117.84;5052294;28;20216;-83
2021/01/19 01:57:49;;;;;;;3.00;2.60;;;3.40;81.20;;;2.34;66.44;95107.34;5036378;28;20200;-83
2021/01/19 02:00:17;;;;;;;2.95;2.45;;;3.30;81.10;;;2.34;66.38;95107.34;5052231;28;20262;-83
2021/01/19 02:02:55;;;;;;;2.97;2.63;;;3.30;81.00;;;2.31;66.04;95105.84;5018994;28;20287;-84
2021/01/19 02:05:25;;;;;;;4.40;2.80;;;3.40;81.10;;;2.33;66.45;95103.13;5035638;28;20220;-83
2021/01/19 02:08:19;;;;;;;3.55;2.95;;;3.40;81.10;;;2.30;66.48;95101.63;5035803;28;20208;-83
2021/01/19 02:10:49;;;;;;;3.75;2.90;;;3.40;81.10;;;2.30;66.17;95098.22;5052370;28;20226;-84
2021/01/19 02:13:47;;;;;;;3.78;2.85;;;3.30;81.00;;;2.24;66.55;95095.22;5068163;28;20195;-84
2021/01/19 02:16:30;;;;;;;3.15;2.60;;;3.40;81.20;;;2.26;66.39;95089.94;5052437;28;20215;-84
2021/01/19 02:19:09;;;;;;;4.53;3.10;;;3.30;80.90;;;2.23;66.85;95092.78;5068322;28;20270;-83
2021/01/19 02:22:05;;;;;;;3.00;2.70;;;3.40;81.20;;;2.22;66.65;95099.72;5050573;28;20200;-83
2021/01/19 02:25:01;;;;;;;3.53;2.70;;;3.40;81.20;;;2.19;66.68;95089.63;5019716;28;20580;-84
2021/01/19 02:28:15;;;;;;;3.50;2.90;;;3.30;81.00;;;2.20;66.41;95098.22;5042750;28;20202;-84
2021/01/19 02:31:29;;;;;;;3.95;2.88;;;3.30;80.90;;;2.18;66.46;95102.72;5032306;28;20243;-84
2021/01/19 02:34:19;;;;;;;3.58;2.90;;;3.30;80.80;;;2.12;66.63;95079.97;5066997;28;20569;-83
2021/01/19 02:36:48;;;;;;;4.25;3.10;;;3.30;80.90;;;2.15;65.96;95093.47;5018940;28;20235;-83
2021/01/19 02:39:28;;;;;;;3.63;3.00;;;3.30;80.90;;;2.16;66.40;95094.25;5066416;28;20221;-84
2021/01/19 02:41:59;;;;;;;3.60;2.80;;;3.30;80.90;;;2.15;66.43;95096.03;5031573;28;20697;-83
2021/01/19 02:44:30;;;;;;;4.70;2.90;;;3.30;80.90;;;2.16;66.06;95089.09;5033541;28;20196;-82
2021/01/19 02:46:59;;;;;;;4.13;3.00;;;3.30;80.90;;;2.16;66.25;95094.25;5035261;28;20200;-83
2021/01/19 02:49:26;;;;;;;3.13;2.75;;;3.30;80.80;;;2.11;66.09;95097.25;5035569;28;20196;-83
2021/01/19 02:51:55;;;;;;;4.13;3.08;;;3.20;80.70;;;2.13;66.23;95089.38;5051876;28;20200;-83
2021/01/19 02:54:23;;;;;;;3.38;2.85;;;3.20;80.70;;;2.13;66.00;95090.19;5035131;28;20223;-83
2021/01/19 02:57:09;;;;;;;4.72;2.97;;;3.20;80.60;;;2.10;65.74;95087.03;5047301;28;20290;-83
2021/01/19 03:00:07;;;;;;;5.85;3.08;;;3.20;80.60;;;2.05;66.21;95084.84;5035230;28;20330;-83
2021/01/19 03:02:36;;;;;;;4.82;3.70;;;3.20;80.70;;;2.02;65.84;95085.94;5067690;28;20294;-84
2021/01/19 03:05:09;;;;;;;4.57;3.17;;;3.10;80.60;;;2.01;65.63;95084.31;5034421;28;20212;-83
2021/01/19 03:07:43;;;;;;;5.65;3.47;;;3.10;80.60;;;1.99;66.16;95090.56;5051454;28;20658;-83
2021/01/19 03:10:13;;;;;;;5.88;3.80;;;3.20;80.80;;;1.94;66.20;95079.81;5034961;28;20220;-83
2021/01/19 03:12:44;;;;;;;4.70;3.90;;;3.10;80.80;;;2.01;66.10;95091.25;5051289;28;20660;-83
2021/01/19 03:15:16;;;;;;;5.55;3.80;;;3.10;80.80;;;2.01;66.62;95084.31;5051434;28;20602;-83
2021/01/19 03:17:43;;;;;;;5.00;3.65;;;3.10;80.80;;;2.02;66.23;95072.19;5035113;28;20234;-83
2021/01/19 03:20:13;;;;;;;5.38;3.63;;;3.10;80.90;;;2.00;66.13;95076.69;5051324;28;20228;-84
2021/01/19 03:22:42;;;;;;;5.95;3.75;;;3.10;80.90;;;2.04;66.15;95080.66;5048779;28;20219;-84
2021/01/19 03:25:09;;;;;;;4.78;3.97;;;3.10;80.90;;;2.01;66.25;95066.19;5032316;28;20226;-84
2021/01/19 03:27:36;;;;;;;4.50;3.80;;;3.20;81.00;;;2.07;66.46;95070.03;5048438;28;20196;-83
2021/01/19 03:30:05;;;;;;;5.22;3.88;;;3.10;80.90;;;2.07;66.11;95070.03;5045974;28;20224;-84
2021/01/19 03:32:33;;;;;;;6.40;4.25;;;3.10;80.80;;;2.02;66.32;95057.47;5049249;28;20196;-83
2021/01/19 03:35:00;;;;;;;6.20;4.50;;;3.20;80.90;;;2.04;66.04;95072.91;5049035;28;20228;-83
2021/01/19 03:37:27;;;;;;;5.68;4.10;;;3.10;80.80;;;2.04;66.21;95068.53;5032362;28;20223;-84
2021/01/19 03:39:53;;;;;;;5.43;4.38;;;3.20;80.70;;;2.02;65.74;95065.25;5032991;28;20231;-83
2021/01/19 03:42:20;;;;;;;6.30;4.50;;;3.10;80.60;;;1.97;65.70;95061.44;5033459;28;20204;-83
2021/01/19 03:44:47;;;;;;;5.72;4.45;;;3.10;80.60;;;1.95;65.70;95053.00;5053647;28;20216;-83
2021/01/19 03:47:14;;;;;;;5.80;4.28;;;3.20;80.50;;;1.94;65.58;95059.13;5032439;28;20236;-82
2021/01/19 03:49:41;;;;;;;6.85;5.07;;;3.10;80.40;;;1.88;65.42;95052.69;5027673;28;20228;-82
2021/01/19 03:52:08;;;;;;;7.63;4.80;;;3.10;80.20;;;1.83;65.32;95055.72;5032299;28;20713;-83
2021/01/19 03:54:35;;;;;;;7.15;4.70;;;3.00;80.20;;;1.85;65.50;95060.75;5015936;28;20248;-84
2021/01/19 03:57:02;;;;;;;8.23;5.32;;;3.00;80.20;;;1.81;65.59;95062.78;5018905;28;20211;-83
2021/01/19 03:59:29;;;;;;;6.05;4.72;;;3.00;80.30;;;1.82;65.70;95056.66;5034686;28;20318;-83
2021/01/19 04:01:56;;;;;;;6.95;4.97;;;3.00;80.40;;;1.85;65.80;95055.56;5019549;28;20208;-83
2021/01/19 04:04:24;;;;;;;7.18;5.07;;;3.00;80.50;;;1.85;65.62;95050.41;5053687;28;20204;-83
2021/01/19 04:06:50;;;;;;;6.72;5.38;;;3.00;80.60;;;1.86;65.94;95060.59;5051916;28;20270;-83
2021/01/19 04:09:17;;;;;;;6.10;4.60;;;3.00;80.60;;;1.94;65.87;95072.06;5033825;28;20294;-83
2021/01/19 04:11:44;;;;;;;7.75;5.30;;;3.00;80.60;;;1.96;65.62;95076.13;5053076;28;20227;-82
2021/01/19 04:14:10;;;;;;;7.10;5.10;;;3.00;80.60;;;1.96;65.76;95063.19;5052509;28;20208;-83
2021/01/19 04:16:37;;;;;;;5.78;4.60;;;3.00;80.60;;;2.02;65.58;95067.03;5036052;28;20205;-83
2021/01/19 04:19:04;;;;;;;7.57;5.50;;;3.10;81.50;;;2.06;65.61;95061.47;5052679;28;20225;-83
2021/01/19 04:21:33;;;;;;;6.35;5.10;;;3.00;80.60;;;2.06;65.48;95058.03;5052498;28;20327;-83
2021/01/19 04:24:00;;;;;;;8.38;5.00;;;3.10;80.70;;;2.03;65.60;95053.16;5019449;28;20224;-83
2021/01/19 04:26:27;;;;;;;6.97;4.88;;;3.10;80.70;;;2.06;65.36;95050.28;5053275;28;20269;-84
2021/01/19 04:28:54;;;;;;;6.57;5.18;;;3.10;80.60;;;2.04;65.66;95060.75;5037003;28;20200;-84
2021/01/19 04:31:21;;;;;;;7.10;5.25;;;3.10;80.60;;;2.05;65.78;95057.22;5037198;28;20227;-82
2021/01/19 04:33:47;;;;;;;8.45;5.72;;;3.10;80.60;;;2.09;65.58;95060.38;5037890;28;20290;-83
2021/01/19 04:36:15;;;;;;;7.15;5.45;;;3.10;80.60;;;2.06;65.60;95051.09;5054053;28;20755;-83
2021/01/19 04:38:41;;;;;;;6.47;4.75;;;3.30;80.70;;;2.12;65.61;95072.22;5037909;28;20208;-84
2021/01/19 04:41:10;;;;;;;7.93;5.72;;;3.10;80.60;;;2.12;65.56;95059.28;5064325;28;20220;-83
2021/01/19 04:43:37;;;;;;;7.45;5.47;;;3.20;80.80;;;2.15;65.73;95072.75;5037115;28;20223;-84
2021/01/19 04:46:05;;;;;;;6.53;5.35;;;3.10;80.60;;;2.08;65.78;95054.34;5036864;28;20302;-83
2021/01/19 04:48:32;;;;;;;6.35;5.20;;;3.20;80.60;;;2.18;65.70;95071.66;5052940;28;20199;-84
2021/01/19 04:51:05;;;;;;;7.93;5.70;;;3.20;80.60;;;2.14;65.62;95060.75;5020447;28;20712;-83
2021/01/19 04:53:35;;;;;;;6.78;5.22;;;3.20;80.60;;;2.19;65.55;95070.72;5036007;28;20192;-84
2021/01/19 04:56:04;;;;;;;8.30;5.28;;;3.30;80.70;;;2.20;65.33;95062.81;5034427;28;20247;-84
2021/01/19 04:58:32;;;;;;;6.70;5.25;;;3.20;80.50;;;2.23;65.39;95069.47;5035801;28;20200;-84
2021/01/19 05:01:20;;;;;;;7.35;5.05;;;3.10;80.40;;;2.23;65.53;95070.31;5035812;28;20224;-82
2021/01/19 05:03:57;;;;;;;9.65;4.95;;;3.20;80.50;;;2.22;65.14;95067.84;5019596;28;20216;-83
2021/01/19 05:06:42;;;;;;;6.72;5.18;;;3.20;80.40;;;2.24;65.40;95069.34;5050077;28;20220;-84
2021/01/19 05:09:32;;;;;;;9.57;6.15;;;3.30;80.50;;;2.21;65.43;95064.44;5062159;28;20634;-84
2021/01/19 05:12:04;;;;;;;11.27;6.50;;;3.30;80.50;;;2.28;65.21;95076.84;5034059;28;20196;-85
2021/01/19 05:14:39;;;;;;;9.57;5.78;;;3.30;80.40;;;2.29;65.31;95066.34;5036294;28;20220;-83
2021/01/19 05:17:06;;;;;;;9.85;7.65;;;3.40;80.50;;;2.24;65.29;95061.56;5048418;28;20204;-84
2021/01/19 05:19:38;;;;;;;9.80;5.90;;;3.30;80.50;;;2.32;65.36;95071.25;5048439;28;20238;-83
2021/01/19 05:22:11;;;;;;;8.75;5.57;;;3.40;80.50;;;2.27;65.11;95062.25;5039688;28;20238;-84
2021/01/19 05:24:41;;;;;;;7.03;5.10;;;3.30;80.50;;;2.34;65.47;95068.53;5052046;28;20239;-84
2021/01/19 05:27:12;;;;;;;8.55;5.68;;;3.40;80.50;;;2.37;65.42;95057.91;5018694;28;20654;-84
2021/01/19 05:29:39;;;;;;;12.38;8.25;;;3.40;80.50;;;2.38;65.29;95057.75;5051424;28;20233;-84
2021/01/19 05:32:06;;;;;;;10.90;6.90;;;3.40;80.50;;;2.33;65.34;95052.19;5036631;28;20202;-84
2021/01/19 05:34:38;;;;;;;10.80;6.97;;;3.40;80.50;;;2.39;65.07;95054.22;5035943;28;20281;-82
2021/01/19 05:37:05;;;;;;;11.25;6.75;;;3.40;80.30;;;2.34;64.72;95053.81;5053138;28;20257;-84
2021/01/19 05:39:32;;;;;;;9.43;6.97;;;3.40;80.30;;;2.35;64.96;95042.50;5052677;28;20330;-84
2021/01/19 05:41:59;;;;;;;10.55;7.18;;;3.40;80.30;;;2.40;65.20;95049.84;5036429;28;20291;-83
2021/01/19 05:44:32;;;;;;;11.60;8.07;;;3.40;80.30;;;2.42;65.01;95034.19;5036293;28;20261;-84
2021/01/19 05:47:05;;;;;;;10.90;7.22;;;3.40;80.10;;;2.36;64.91;95036.38;5036672;28;20223;-83
2021/01/19 05:49:41;;;;;;;11.35;7.32;;;3.40;80.10;;;2.35;64.79;95033.94;5035787;28;20736;-84
2021/01/19 05:52:13;;;;;;;17.73;10.77;;;3.40;80.10;;;2.40;64.90;95031.72;5035898;28;20249;-83
2021/01/19 05:54:50;;;;;;;10.48;7.10;;;3.40;80.00;;;2.35;64.81;95045.09;5019684;28;20239;-84
2021/01/19 05:57:22;;;;;;;8.35;6.43;;;3.40;80.00;;;2.34;64.77;95038.28;5035747;28;20206;-83
2021/01/19 05:59:55;;;;;;;8.30;6.40;;;3.40;80.00;;;2.39;64.76;95040.44;5051865;28;20236;-84
2021/01/19 06:02:37;;;;;;;12.05;7.30;;;3.40;80.00;;;2.40;64.91;95058.47;5019612;28;20211;-84
2021/01/19 06:05:17;;;;;;;9.43;5.47;;;3.40;80.00;;;2.42;64.82;95042.78;5052367;28;20247;-84
2021/01/19 06:07:45;;;;;;;9.57;6.60;;;3.40;79.80;;;2.42;64.76;95039.34;5063138;28;20302;-83
2021/01/19 06:10:19;;;;;;;9.18;5.78;;;3.40;79.90;;;2.35;64.58;95039.09;5035282;28;20219;-84
2021/01/19 06:12:47;;;;;;;6.85;5.40;;;3.50;79.90;;;2.38;64.97;95038.81;5036555;28;20196;-84
2021/01/19 06:15:14;;;;;;;7.85;5.70;;;3.50;79.90;;;2.35;64.28;95034.72;5035258;28;20299;-84
2021/01/19 06:17:41;;;;;;;7.97;5.30;;;3.50;79.90;;;2.39;64.53;95040.44;5051267;28;20211;-84
2021/01/19 06:20:08;;;;;;;9.27;6.18;;;3.40;79.80;;;2.39;64.53;95049.06;5034766;28;20697;-83
2021/01/19 06:22:35;;;;;;;5.80;5.20;;;3.40;79.80;;;2.38;64.28;95044.00;5035370;28;20242;-83
2021/01/19 06:25:04;;;;;;;10.43;5.55;;;3.40;79.80;;;2.38;64.56;95037.06;5035486;28;20220;-83
2021/01/19 06:27:34;;;;;;;7.95;5.55;;;3.40;79.90;;;2.39;64.40;95040.44;5035461;28;20192;-84
2021/01/19 06:30:00;;;;;;;7.35;5.35;;;3.40;79.80;;;2.40;64.54;95031.72;5035125;28;20245;-84
2021/01/19 06:32:31;;;;;;;8.15;5.70;;;3.40;79.80;;;2.39;64.65;95022.34;5068430;28;20294;-84
2021/01/19 06:35:19;;;;;;;7.60;5.80;;;3.40;79.80;;;2.37;64.46;95024.25;5035433;28;20236;-84
2021/01/19 06:37:51;;;;;;;9.48;5.55;;;3.40;79.80;;;2.39;64.57;95027.50;5051909;28;20200;-84
2021/01/19 06:40:24;;;;;;;7.25;5.43;;;3.50;79.90;;;2.36;64.21;95028.59;5024533;28;20232;-83
2021/01/19 06:43:02;;;;;;;7.80;5.20;;;3.40;79.80;;;2.40;64.24;95036.91;5027416;28;20199;-83
2021/01/19 06:45:31;;;;;;;7.03;5.00;;;3.40;79.90;;;2.37;64.23;95032.84;5052530;28;20216;-83
2021/01/19 06:48:02;;;;;;;8.70;5.63;;;3.40;79.80;;;2.39;64.02;95027.50;5035539;28;20196;-83
2021/01/19 06:50:37;;;;;;;9.07;5.28;;;3.40;79.80;;;2.33;64.15;95012.53;5035437;28;20269;-83
2021/01/19 06:53:43;;;;;;;6.45;4.45;;;3.40;79.80;;;2.36;64.17;95032.97;5035175;28;20230;-83
2021/01/19 06:56:14;;;;;;;7.25;4.50;;;3.40;79.80;;;2.36;64.28;95027.81;5034642;28;20220;-83
2021/01/19 06:58:55;;;;;;;7.65;4.78;;;3.50;79.90;;;2.32;64.21;95003.13;5017881;28;20224;-83
2021/01/19 07:01:29;;;;;;;8.82;4.80;;;3.40;79.60;;;2.38;64.16;95023.28;5050801;28;20219;-83
2021/01/19 07:04:18;;;;;;;8.02;4.72;;;3.40;79.70;;;2.36;64.15;95036.38;5061535;28;20297;-83
2021/01/19 07:07:34;;;;;;;6.90;4.50;;;3.40;79.80;;;2.30;64.19;95023.19;5036352;28;20239;-83
2021/01/19 07:10:14;;;;;;;6.43;4.45;;;3.40;79.50;;;2.35;63.85;95026.16;5052871;28;20212;-83
2021/01/19 07:13:06;;;;;;;6.57;4.80;;;3.40;79.40;;;2.30;64.13;95018.00;5034022;28;20238;-83
2021/01/19 07:16:03;;;;;;;5.05;3.60;;;3.40;79.50;;;2.36;63.89;95027.81;5051872;28;20224;-83
2021/01/19 07:19:19;;;;;;;6.60;3.97;;;3.40;79.40;;;2.33;64.00;95025.47;5034797;28;20203;-83
2021/01/19 07:22:15;;;;;;;5.95;3.90;;;3.40;79.50;;;2.27;63.94;95019.09;5049145;28;20566;-84
2021/01/19 07:24:49;;;;;;;8.10;4.30;;;3.40;79.50;;;2.32;64.12;95026.44;5050655;28;20216;-83
2021/01/19 07:27:21;;;;;;;5.45;3.70;;;3.40;79.50;;;2.33;63.86;95028.06;5068151;28;20192;-83
2021/01/19 07:29:48;;;;;;;4.53;3.60;;;3.40;79.60;;;2.36;63.88;95030.38;5020123;28;20225;-83
2021/01/19 07:32:21;;;;;;;4.95;3.63;;;3.40;79.50;;;2.34;63.71;95011.59;5039120;28;20206;-83
2021/01/19 07:34:49;;;;;;;6.07;3.92;;;3.40;79.20;;;2.33;63.63;95020.28;5055491;28;20240;-84
2021/01/19 07:37:15;;;;;;;5.53;4.00;;;3.40;79.30;;;2.34;63.40;95024.53;5055517;28;20223;-83
2021/01/19 07:39:43;;;;;;;5.07;3.70;;;3.40;79.20;;;2.34;63.35;95027.91;5038514;28;20238;-82
2021/01/19 07:42:15;;;;;;;8.80;4.30;;;3.40;79.30;;;2.32;63.41;95034.19;5022613;28;20291;-83
2021/01/19 07:44:59;;;;;;;6.53;3.70;;;3.40;79.10;;;2.31;63.15;95046.31;5037557;28;20228;-83
2021/01/19 07:47:36;;;;;;;5.70;3.60;;;3.40;79.10;;;2.29;63.35;95048.22;5038946;28;20199;-84
2021/01/19 07:50:13;;;;;;;6.18;3.72;;;3.40;79.00;;;2.32;63.43;95036.78;5038345;28;20246;-83
2021/01/19 07:52:43;;;;;;;8.52;3.83;;;3.40;79.00;;;2.30;63.37;95026.56;5054734;28;20227;-83
2021/01/19 07:55:21;;;;;;;7.20;3.67;;;3.40;78.90;;;2.32;63.44;95034.19;5051892;28;20220;-84
2021/01/19 07:57:50;;;;;;;6.40;3.83;;;3.40;78.90;;;2.35;63.34;95039.91;5031723;28;20192;-83
2021/01/19 08:00:24;;;;;;;6.13;3.70;;;3.30;78.90;;;2.34;63.17;95053.81;5053613;28;20709;-83
2021/01/19 08:03:07;;;;;;;5.72;3.75;;;3.40;78.80;;;2.31;62.98;95033.38;5037805;28;20653;-83
2021/01/19 08:05:35;;;;;;;5.18;3.92;;;3.40;78.80;;;2.37;63.30;95032.84;5071629;28;20220;-83
2021/01/19 08:08:14;;;;;;;6.90;3.85;;;3.40;79.70;;;2.38;63.03;95031.88;5017802;28;20224;-84
2021/01/19 08:10:41;;;;;;;9.48;5.70;;;3.40;78.80;;;2.41;63.16;95035.97;5053596;28;20644;-83
2021/01/19 08:13:18;;;;;;;8.27;4.50;;;3.40;79.00;;;2.44;63.02;95014.16;5053958;28;20224;-82
2021/01/19 08:16:04;;;;;;;7.05;4.35;;;3.40;78.80;;;2.48;62.84;95018.09;5054289;28;20306;-84
2021/01/19 08:18:40;;;;;;;4.55;3.85;;;3.40;78.70;;;2.50;63.02;95004.06;5071637;28;20654;-84
2021/01/19 08:21:10;;;;;;;6.97;3.63;;;3.50;78.90;;;2.58;63.26;95010.31;5021232;28;20223;-83
2021/01/19 08:23:38;;;;;;;5.53;3.80;;;3.50;79.00;;;2.56;62.28;95013.03;5037991;28;20185;-82
2021/01/19 08:26:09;;;;;;;6.75;4.28;;;3.50;78.90;;;2.61;63.00;94999.69;5038054;28;20216;-82
2021/01/19 08:28:37;;;;;;;7.57;3.70;;;3.60;79.00;;;2.66;62.68;94998.31;5053833;28;20200;-82
2021/01/19 08:31:15;;;;;;;8.25;4.32;;;3.60;79.10;;;2.68;62.56;94992.97;5053754;28;20208;-83
2021/01/19 08:33:50;;;;;;;7.05;4.40;;;3.60;78.80;;;2.72;62.87;94992.56;5054357;28;20226;-83
2021/01/19 08:36:19;;;;;;;6.30;3.90;;;3.60;78.90;;;2.75;62.34;94991.47;5053859;28;20227;-82
2021/01/19 08:38:48;;;;;;;8.02;3.72;;;3.70;79.70;;;2.76;62.18;94981.91;5037450;28;20204;-83
2021/01/19 08:41:18;;;;;;;4.57;3.75;;;3.70;78.70;;;2.87;62.72;94985.16;5032563;28;20338;-84
2021/01/19 08:44:00;;;;;;;5.70;3.70;;;3.70;78.80;;;2.94;62.72;94980.22;5069385;28;20206;-84
2021/01/19 08:46:30;;;;;;;6.60;3.67;;;3.80;78.80;;;2.99;62.49;94985.78;5065548;28;20247;-82
2021/01/19 08:49:04;;;;;;;4.80;3.42;;;3.80;78.70;;;3.02;62.31;94972.53;5037672;28;20734;-84
2021/01/19 08:51:33;;;;;;;6.22;3.55;;;3.90;78.70;;;3.06;62.30;94969.66;5053320;28;20700;-82
2021/01/19 08:54:00;;;;;;;4.80;3.60;;;3.90;78.90;;;3.12;62.44;94969.88;5019587;28;20201;-84
2021/01/19 08:56:28;;;;;;;5.35;3.40;;;3.90;78.90;;;3.18;62.08;94982.25;5037298;28;20224;-84
2021/01/19 08:58:55;;;;;;;6.20;3.63;;;4.00;78.90;;;3.21;61.82;94963.03;5080416;28;20203;-84
2021/01/19 09:01:23;;;;;;;5.93;3.30;;;4.00;78.70;;;3.31;61.96;94971.56;5044625;28;20739;-84
2021/01/19 09:03:59;;;;;;;6.10;3.85;;;4.10;78.80;;;3.32;61.06;94964.59;5037226;28;20642;-81
2021/01/19 09:06:28;;;;;;;6.80;3.97;;;4.10;78.20;;;3.37;61.75;94962.41;5036813;28;20214;-82
2021/01/19 09:08:59;;;;;;;7.47;3.97;;;4.20;78.50;;;3.42;61.72;94952.41;5036278;28;20192;-83
2021/01/19 09:11:31;;;;;;;7.07;3.85;;;4.20;78.50;;;3.45;60.92;94959.88;5037264;28;20228;-82
2021/01/19 09:14:08;;;;;;;6.78;3.72;;;4.30;78.20;;;3.39;60.40;94938.91;5037155;28;20226;-82
2021/01/19 09:16:37;;;;;;;5.35;3.72;;;4.30;77.40;;;3.42;60.82;94928.22;5036770;28;20207;-83
2021/01/19 09:19:08;;;;;;;5.88;3.67;;;4.30;78.00;;;3.50;60.61;94936.94;5033792;28;20185;-83
2021/01/19 09:21:38;;;;;;;5.13;3.55;;;4.40;78.80;;;3.54;61.13;94934.88;5053283;28;20224;-82
2021/01/19 09:24:20;;;;;;;6.07;3.78;;;4.40;78.10;;;3.65;61.25;94929.44;5036334;28;20279;-83
2021/01/19 09:27:01;;;;;;;7.63;4.80;;;4.40;77.80;;;3.71;61.18;94935.84;5051831;28;20246;-82
2021/01/19 09:29:33;;;;;;;6.57;4.00;;;4.50;78.20;;;3.74;60.45;94919.94;5030542;28;20192;-82
2021/01/19 09:32:04;;;;;;;7.75;4.40;;;4.50;78.00;;;3.80;60.76;94921.16;5033455;28;20193;-82
2021/01/19 09:34:32;;;;;;;9.60;5.03;;;4.60;78.00;;;3.85;61.03;94911.13;5046857;28;20235;-83
2021/01/19 09:36:59;;;;;;;6.13;3.85;;;4.60;78.20;;;3.91;61.00;94900.16;5053166;28;20196;-84
2021/01/19 09:39:28;;;;;;;6.40;3.95;;;4.70;78.30;;;3.93;61.05;94895.63;5034999;28;20650;-82
2021/01/19 09:42:04;;;;;;;5.35;3.53;;;4.80;78.10;;;4.04;61.29;94901.53;5034698;28;20218;-83
2021/01/19 09:44:33;;;;;;;6.03;3.67;;;4.80;78.20;;;4.13;61.02;94896.25;5053121;28;20215;-84
2021/01/19 09:47:05;;;;;;;4.53;3.50;;;4.90;78.30;;;4.18;61.53;94882.81;5032428;28;20263;-82
2021/01/19 09:49:36;;;;;;;17.27;8.15;;;4.90;78.30;;;4.25;60.97;94890.81;5045966;28;20239;-83
2021/01/19 09:52:15;;;;;;;15.93;8.80;;;5.00;78.90;;;4.28;61.08;94874.91;5052514;28;20192;-82
2021/01/19 09:54:42;;;;;;;8.40;5.07;;;5.10;77.90;;;4.28;61.30;94870.53;5036084;28;20644;-83
2021/01/19 09:57:09;;;;;;;20.90;10.18;;;5.00;78.30;;;4.38;61.13;94870.44;5035562;28;20200;-83
2021/01/19 09:59:39;;;;;;;11.73;6.50;;;5.10;78.40;;;4.40;61.45;94860.69;5052184;28;20227;-82
2021/01/19 10:02:07;;;;;;;6.32;4.47;;;5.20;78.10;;;4.48;61.39;94859.94;5052592;28;20278;-83
2021/01/19 10:04:34;;;;;;;5.60;4.05;;;5.20;78.30;;;4.53;61.08;94859.44;5052982;28;20251;-83
2021/01/19 10:07:05;;;;;;;8.02;5.20;;;5.20;78.20;;;4.48;60.75;94860.75;5052074;28;20575;-83
2021/01/19 10:09:34;;;;;;;6.75;4.15;;;5.30;77.70;;;4.49;60.92;94854.59;5081251;28;20227;-83
2021/01/19 10:12:07;;;;;;;8.77;5.75;;;5.30;77.90;;;4.57;60.78;94860.78;5035412;28;20200;-82
2021/01/19 10:14:40;;;;;;;8.10;4.78;;;5.30;78.00;;;4.63;61.40;94845.38;5035867;28;20243;-83
2021/01/19 10:17:34;;;;;;;8.30;5.15;;;5.40;78.10;;;4.73;60.72;94841.84;5031099;28;20204;-83
2021/01/19 10:20:07;;;;;;;7.47;4.20;;;5.40;77.90;;;4.80;61.23;94846.25;5029437;28;20725;-83
2021/01/19 10:22:43;;;;;;;6.00;4.25;;;5.50;78.00;;;4.88;60.98;94829.88;5067945;28;20229;-83
2021/01/19 10:25:29;;;;;;;8.30;4.80;;;5.60;78.10;;;4.91;60.93;94819.16;5035782;28;20235;-83
2021/01/19 10:28:03;;;;;;;8.57;5.07;;;5.60;78.10;;;4.96;60.64;94811.69;5035738;28;20222;-83
2021/01/19 10:30:30;;;;;;;7.18;4.75;;;5.60;78.10;;;5.05;61.13;94812.50;5031880;28;20256;-83
2021/01/19 10:32:58;;;;;;;8.13;4.45;;;5.70;78.30;;;5.12;60.95;94812.69;5015121;28;20292;-82
2021/01/19 10:35:37;;;;;;;5.97;4.40;;;5.70;78.10;;;5.16;60.53;94797.59;5048257;28;20319;-83
2021/01/19 10:38:08;;;;;;;6.05;4.60;;;5.80;78.00;;;5.19;59.67;94792.06;5045270;28;20253;-83
2021/01/19 10:40:45;;;;;;;5.10;3.97;;;5.80;77.30;;;5.14;60.21;94771.75;5035751;28;20224;-83
2021/01/19 10:43:12;;;;;;;5.68;3.42;;;5.90;77.60;;;5.20;59.28;94773.72;5051994;28;20598;-83
2021/01/19 10:45:41;;;;;;;5.72;3.55;;;5.90;77.50;;;5.20;59.47;94776.31;5034991;28;20215;-82
2021/01/19 10:48:20;;;;;;;4.80;3.60;;;5.90;77.50;;;5.24;59.71;94766.41;5035249;28;20211;-83
2021/01/19 10:50:48;;;;;;;4.65;3.50;;;5.90;77.00;;;5.30;60.20;94760.56;5035443;28;20255;-82
2021/01/19 10:53:26;;;;;;;5.72;3.92;;;5.90;77.50;;;5.35;60.29;94753.06;5033606;28;20235;-83
2021/01/19 10:55:53;;;;;;;6.53;4.53;;;6.00;77.80;;;5.41;60.72;94749.00;5016625;28;20220;-83